sensor_id;sensor_type;location;lat;lon;timestamp;P1;durP1;ratioP1;P2;durP2;ratioP2
51724;SDS011;37801;53.224;6.552;2022-08-01T00:00:27;6.00;;;4.38;;
51724;SDS011;37801;53.224;6.552;2022-08-01T00:02:53;5.78;;;4.45;;
51724;SDS011;37801;53.224;6.552;2022-08-01T00:05:19;8.95;;;4.45;;
51724;SDS011;37801;53.224;6.552;2022-08-01T00:07:44;7.10;;;4.93;;
51724;SDS011;37801;53.224;6.552;2022-08-01T00:10:11;7.72;;;4.07;;
51724;SDS011;37801;53.224;6.552;2022-08-01T00:12:39;5.57;;;4.70;;
51724;SDS011;37801;53.224;6.552;2022-08-01T00:15:06;5.65;;;4.40;;
51724;SDS011;37801;53.224;6.552;2022-08-01T00:17:34;10.25;;;4.97;;
51724;SDS011;37801;53.224;6.552;2022-08-01T00:20:00;6.63;;;4.97;;
51724;SDS011;37801;53.224;6.552;2022-08-01T00:22:28;5.13;;;4.38;;
51724;SDS011;37801;53.224;6.552;2022-08-01T00:24:55;6.05;;;4.70;;
51724;SDS011;37801;53.224;6.552;2022-08-01T00:27:21;5.40;;;4.53;;
51724;SDS011;37801;53.224;6.552;2022-08-01T00:29:47;6.43;;;4.95;;
51724;SDS011;37801;53.224;6.552;2022-08-01T00:32:12;6.38;;;4.45;;
51724;SDS011;37801;53.224;6.552;2022-08-01T00:34:38;7.60;;;4.70;;
51724;SDS011;37801;53.224;6.552;2022-08-01T00:37:04;10.10;;;5.35;;
51724;SDS011;37801;53.224;6.552;2022-08-01T00:39:30;7.43;;;4.80;;
51724;SDS011;37801;53.224;6.552;2022-08-01T00:41:57;6.78;;;5.13;;
51724;SDS011;37801;53.224;6.552;2022-08-01T00:44:23;7.60;;;5.30;;
51724;SDS011;37801;53.224;6.552;2022-08-01T00:46:49;7.05;;;5.43;;
51724;SDS011;37801;53.224;6.552;2022-08-01T00:49:15;9.55;;;5.53;;
51724;SDS011;37801;53.224;6.552;2022-08-01T00:51:40;9.20;;;5.30;;
51724;SDS011;37801;53.224;6.552;2022-08-01T00:54:06;7.22;;;5.50;;
51724;SDS011;37801;53.224;6.552;2022-08-01T00:56:32;7.35;;;5.25;;
51724;SDS011;37801;53.224;6.552;2022-08-01T00:58:58;7.38;;;5.47;;
51724;SDS011;37801;53.224;6.552;2022-08-01T01:01:25;5.88;;;3.85;;
51724;SDS011;37801;53.224;6.552;2022-08-01T01:03:52;7.25;;;4.07;;
51724;SDS011;37801;53.224;6.552;2022-08-01T01:09:15;5.03;;;4.05;;
51724;SDS011;37801;53.224;6.552;2022-08-01T01:11:48;7.03;;;4.28;;
51724;SDS011;37801;53.224;6.552;2022-08-01T01:15:01;4.35;;;3.40;;
51724;SDS011;37801;53.224;6.552;2022-08-01T01:20:16;4.32;;;2.95;;
51724;SDS011;37801;53.224;6.552;2022-08-01T01:25:54;6.82;;;3.15;;
51724;SDS011;37801;53.224;6.552;2022-08-01T01:31:36;6.60;;;2.78;;
51724;SDS011;37801;53.224;6.552;2022-08-01T01:34:09;5.72;;;2.95;;
51724;SDS011;37801;53.224;6.552;2022-08-01T01:36:37;7.32;;;2.65;;
51724;SDS011;37801;53.224;6.552;2022-08-01T01:39:04;6.05;;;3.10;;
51724;SDS011;37801;53.224;6.552;2022-08-01T01:41:32;9.55;;;3.05;;
51724;SDS011;37801;53.224;6.552;2022-08-01T01:44:00;10.70;;;3.20;;
51724;SDS011;37801;53.224;6.552;2022-08-01T01:46:26;7.47;;;2.70;;
51724;SDS011;37801;53.224;6.552;2022-08-01T01:48:56;7.65;;;2.70;;
51724;SDS011;37801;53.224;6.552;2022-08-01T01:51:25;8.02;;;3.08;;
51724;SDS011;37801;53.224;6.552;2022-08-01T01:53:53;6.53;;;2.65;;
51724;SDS011;37801;53.224;6.552;2022-08-01T01:56:20;8.18;;;2.60;;
51724;SDS011;37801;53.224;6.552;2022-08-01T01:58:59;6.45;;;2.92;;
51724;SDS011;37801;53.224;6.552;2022-08-01T02:01:28;6.43;;;2.63;;
51724;SDS011;37801;53.224;6.552;2022-08-01T02:03:56;8.13;;;3.33;;
51724;SDS011;37801;53.224;6.552;2022-08-01T02:06:23;6.18;;;2.50;;
51724;SDS011;37801;53.224;6.552;2022-08-01T02:08:52;6.68;;;2.80;;
51724;SDS011;37801;53.224;6.552;2022-08-01T02:11:19;9.25;;;2.50;;
51724;SDS011;37801;53.224;6.552;2022-08-01T02:13:48;7.07;;;2.35;;
51724;SDS011;37801;53.224;6.552;2022-08-01T02:16:24;5.28;;;2.15;;
51724;SDS011;37801;53.224;6.552;2022-08-01T02:18:52;8.05;;;2.40;;
51724;SDS011;37801;53.224;6.552;2022-08-01T02:21:20;4.20;;;2.08;;
51724;SDS011;37801;53.224;6.552;2022-08-01T02:23:53;7.20;;;3.00;;
51724;SDS011;37801;53.224;6.552;2022-08-01T02:26:25;3.55;;;2.03;;
51724;SDS011;37801;53.224;6.552;2022-08-01T02:29:10;9.73;;;2.42;;
51724;SDS011;37801;53.224;6.552;2022-08-01T02:31:40;9.45;;;2.75;;
51724;SDS011;37801;53.224;6.552;2022-08-01T02:34:10;9.13;;;2.88;;
51724;SDS011;37801;53.224;6.552;2022-08-01T02:36:40;7.47;;;2.95;;
51724;SDS011;37801;53.224;6.552;2022-08-01T02:39:09;9.35;;;3.25;;
51724;SDS011;37801;53.224;6.552;2022-08-01T02:41:39;10.90;;;3.65;;
51724;SDS011;37801;53.224;6.552;2022-08-01T02:44:08;16.13;;;3.85;;
51724;SDS011;37801;53.224;6.552;2022-08-01T02:46:43;10.23;;;3.65;;
51724;SDS011;37801;53.224;6.552;2022-08-01T02:49:14;14.23;;;3.58;;
51724;SDS011;37801;53.224;6.552;2022-08-01T02:51:41;11.88;;;3.97;;
51724;SDS011;37801;53.224;6.552;2022-08-01T02:54:11;7.20;;;3.50;;
51724;SDS011;37801;53.224;6.552;2022-08-01T02:56:38;10.63;;;3.75;;
51724;SDS011;37801;53.224;6.552;2022-08-01T02:59:07;9.85;;;4.00;;
51724;SDS011;37801;53.224;6.552;2022-08-01T03:01:36;9.80;;;3.55;;
51724;SDS011;37801;53.224;6.552;2022-08-01T03:04:04;9.90;;;3.75;;
51724;SDS011;37801;53.224;6.552;2022-08-01T03:06:32;7.80;;;3.63;;
51724;SDS011;37801;53.224;6.552;2022-08-01T03:08:59;15.00;;;4.07;;
51724;SDS011;37801;53.224;6.552;2022-08-01T03:11:27;10.35;;;4.07;;
51724;SDS011;37801;53.224;6.552;2022-08-01T03:13:55;10.88;;;3.80;;
51724;SDS011;37801;53.224;6.552;2022-08-01T03:16:22;8.38;;;3.72;;
51724;SDS011;37801;53.224;6.552;2022-08-01T03:18:50;10.35;;;4.13;;
51724;SDS011;37801;53.224;6.552;2022-08-01T03:21:19;7.32;;;3.47;;
51724;SDS011;37801;53.224;6.552;2022-08-01T03:23:47;7.47;;;3.85;;
51724;SDS011;37801;53.224;6.552;2022-08-01T03:26:15;12.15;;;4.32;;
51724;SDS011;37801;53.224;6.552;2022-08-01T03:28:42;11.93;;;4.15;;
51724;SDS011;37801;53.224;6.552;2022-08-01T03:31:12;7.88;;;3.92;;
51724;SDS011;37801;53.224;6.552;2022-08-01T03:33:39;13.50;;;4.40;;
51724;SDS011;37801;53.224;6.552;2022-08-01T03:36:04;12.02;;;4.13;;
51724;SDS011;37801;53.224;6.552;2022-08-01T03:38:34;8.32;;;3.90;;
51724;SDS011;37801;53.224;6.552;2022-08-01T03:41:15;6.88;;;3.63;;
51724;SDS011;37801;53.224;6.552;2022-08-01T03:43:54;11.57;;;4.13;;
51724;SDS011;37801;53.224;6.552;2022-08-01T03:46:27;9.20;;;3.83;;
51724;SDS011;37801;53.224;6.552;2022-08-01T03:48:58;8.10;;;3.80;;
51724;SDS011;37801;53.224;6.552;2022-08-01T03:51:28;8.93;;;3.58;;
51724;SDS011;37801;53.224;6.552;2022-08-01T03:53:55;13.00;;;4.03;;
51724;SDS011;37801;53.224;6.552;2022-08-01T03:56:24;7.32;;;3.83;;
51724;SDS011;37801;53.224;6.552;2022-08-01T03:58:51;11.80;;;4.65;;
51724;SDS011;37801;53.224;6.552;2022-08-01T04:01:18;10.48;;;4.50;;
51724;SDS011;37801;53.224;6.552;2022-08-01T04:03:45;10.43;;;3.90;;
51724;SDS011;37801;53.224;6.552;2022-08-01T04:06:11;7.57;;;3.78;;
51724;SDS011;37801;53.224;6.552;2022-08-01T04:08:39;11.60;;;3.95;;
51724;SDS011;37801;53.224;6.552;2022-08-01T04:11:07;9.35;;;3.90;;
51724;SDS011;37801;53.224;6.552;2022-08-01T04:13:34;9.73;;;3.70;;
51724;SDS011;37801;53.224;6.552;2022-08-01T04:15:59;11.38;;;4.28;;
51724;SDS011;37801;53.224;6.552;2022-08-01T04:18:25;10.70;;;4.05;;
51724;SDS011;37801;53.224;6.552;2022-08-01T04:20:51;10.70;;;4.28;;
51724;SDS011;37801;53.224;6.552;2022-08-01T04:23:17;13.52;;;4.45;;
51724;SDS011;37801;53.224;6.552;2022-08-01T04:25:47;11.43;;;3.83;;
51724;SDS011;37801;53.224;6.552;2022-08-01T04:28:15;12.75;;;4.63;;
51724;SDS011;37801;53.224;6.552;2022-08-01T04:30:42;10.95;;;4.40;;
51724;SDS011;37801;53.224;6.552;2022-08-01T04:33:11;11.65;;;4.07;;
51724;SDS011;37801;53.224;6.552;2022-08-01T04:35:42;11.10;;;3.58;;
51724;SDS011;37801;53.224;6.552;2022-08-01T04:38:13;11.13;;;3.80;;
51724;SDS011;37801;53.224;6.552;2022-08-01T04:40:44;11.30;;;3.97;;
51724;SDS011;37801;53.224;6.552;2022-08-01T04:43:13;11.30;;;3.53;;
51724;SDS011;37801;53.224;6.552;2022-08-01T04:45:39;10.57;;;4.03;;
51724;SDS011;37801;53.224;6.552;2022-08-01T04:48:08;13.27;;;3.97;;
51724;SDS011;37801;53.224;6.552;2022-08-01T04:50:35;15.68;;;3.90;;
51724;SDS011;37801;53.224;6.552;2022-08-01T04:53:02;12.75;;;3.88;;
51724;SDS011;37801;53.224;6.552;2022-08-01T04:55:28;11.55;;;3.88;;
51724;SDS011;37801;53.224;6.552;2022-08-01T04:57:56;12.85;;;3.75;;
51724;SDS011;37801;53.224;6.552;2022-08-01T05:00:21;10.25;;;3.83;;
51724;SDS011;37801;53.224;6.552;2022-08-01T05:02:47;13.43;;;3.65;;
51724;SDS011;37801;53.224;6.552;2022-08-01T05:05:13;16.10;;;3.90;;
51724;SDS011;37801;53.224;6.552;2022-08-01T05:07:39;8.82;;;3.95;;
51724;SDS011;37801;53.224;6.552;2022-08-01T05:10:05;13.70;;;4.22;;
51724;SDS011;37801;53.224;6.552;2022-08-01T05:12:31;12.07;;;4.38;;
51724;SDS011;37801;53.224;6.552;2022-08-01T05:15:00;11.82;;;3.88;;
51724;SDS011;37801;53.224;6.552;2022-08-01T05:17:26;8.93;;;3.40;;
51724;SDS011;37801;53.224;6.552;2022-08-01T05:19:52;10.13;;;4.15;;
51724;SDS011;37801;53.224;6.552;2022-08-01T05:22:18;13.75;;;3.88;;
51724;SDS011;37801;53.224;6.552;2022-08-01T05:24:44;16.38;;;4.55;;
51724;SDS011;37801;53.224;6.552;2022-08-01T05:27:10;13.82;;;4.03;;
51724;SDS011;37801;53.224;6.552;2022-08-01T05:29:37;17.55;;;4.28;;
51724;SDS011;37801;53.224;6.552;2022-08-01T05:32:03;14.25;;;4.28;;
51724;SDS011;37801;53.224;6.552;2022-08-01T05:34:29;15.40;;;4.10;;
51724;SDS011;37801;53.224;6.552;2022-08-01T05:36:55;16.90;;;4.53;;
51724;SDS011;37801;53.224;6.552;2022-08-01T05:39:20;16.45;;;4.35;;
51724;SDS011;37801;53.224;6.552;2022-08-01T05:41:46;15.85;;;4.55;;
51724;SDS011;37801;53.224;6.552;2022-08-01T05:44:12;15.73;;;5.30;;
51724;SDS011;37801;53.224;6.552;2022-08-01T05:46:38;15.43;;;4.13;;
51724;SDS011;37801;53.224;6.552;2022-08-01T05:49:04;15.77;;;4.20;;
51724;SDS011;37801;53.224;6.552;2022-08-01T05:51:30;17.63;;;4.25;;
51724;SDS011;37801;53.224;6.552;2022-08-01T05:53:56;14.25;;;3.92;;
51724;SDS011;37801;53.224;6.552;2022-08-01T05:56:22;16.00;;;4.50;;
51724;SDS011;37801;53.224;6.552;2022-08-01T05:58:49;20.80;;;4.10;;
51724;SDS011;37801;53.224;6.552;2022-08-01T06:01:15;13.25;;;3.70;;
51724;SDS011;37801;53.224;6.552;2022-08-01T06:03:42;18.73;;;4.40;;
51724;SDS011;37801;53.224;6.552;2022-08-01T06:06:08;16.45;;;3.83;;
51724;SDS011;37801;53.224;6.552;2022-08-01T06:08:34;16.65;;;4.65;;
51724;SDS011;37801;53.224;6.552;2022-08-01T06:11:00;17.25;;;4.15;;
51724;SDS011;37801;53.224;6.552;2022-08-01T06:13:26;14.32;;;3.50;;
51724;SDS011;37801;53.224;6.552;2022-08-01T06:15:52;15.20;;;4.25;;
51724;SDS011;37801;53.224;6.552;2022-08-01T06:18:18;15.98;;;3.50;;
51724;SDS011;37801;53.224;6.552;2022-08-01T06:20:44;18.38;;;4.68;;
51724;SDS011;37801;53.224;6.552;2022-08-01T06:23:10;20.98;;;4.32;;
51724;SDS011;37801;53.224;6.552;2022-08-01T06:25:35;16.52;;;3.50;;
51724;SDS011;37801;53.224;6.552;2022-08-01T06:28:01;11.93;;;3.45;;
51724;SDS011;37801;53.224;6.552;2022-08-01T06:30:27;9.48;;;3.72;;
51724;SDS011;37801;53.224;6.552;2022-08-01T06:32:53;13.57;;;4.22;;
51724;SDS011;37801;53.224;6.552;2022-08-01T06:35:21;19.70;;;4.22;;
51724;SDS011;37801;53.224;6.552;2022-08-01T06:37:47;17.08;;;4.57;;
51724;SDS011;37801;53.224;6.552;2022-08-01T06:40:14;21.52;;;4.63;;
51724;SDS011;37801;53.224;6.552;2022-08-01T06:42:40;14.80;;;4.00;;
51724;SDS011;37801;53.224;6.552;2022-08-01T06:45:07;12.75;;;3.47;;
51724;SDS011;37801;53.224;6.552;2022-08-01T06:47:34;13.63;;;3.63;;
51724;SDS011;37801;53.224;6.552;2022-08-01T06:50:00;17.48;;;3.95;;
51724;SDS011;37801;53.224;6.552;2022-08-01T06:52:26;10.10;;;3.63;;
51724;SDS011;37801;53.224;6.552;2022-08-01T06:54:52;14.77;;;3.60;;
51724;SDS011;37801;53.224;6.552;2022-08-01T06:57:18;15.38;;;3.65;;
51724;SDS011;37801;53.224;6.552;2022-08-01T06:59:43;13.82;;;3.20;;
51724;SDS011;37801;53.224;6.552;2022-08-01T07:02:09;15.60;;;3.67;;
51724;SDS011;37801;53.224;6.552;2022-08-01T07:04:35;16.40;;;3.47;;
51724;SDS011;37801;53.224;6.552;2022-08-01T07:07:01;15.45;;;3.40;;
51724;SDS011;37801;53.224;6.552;2022-08-01T07:09:27;16.90;;;3.28;;
51724;SDS011;37801;53.224;6.552;2022-08-01T07:11:53;15.32;;;3.63;;
51724;SDS011;37801;53.224;6.552;2022-08-01T07:14:22;11.85;;;3.20;;
51724;SDS011;37801;53.224;6.552;2022-08-01T07:16:49;19.70;;;3.50;;
51724;SDS011;37801;53.224;6.552;2022-08-01T07:19:15;13.90;;;3.15;;
51724;SDS011;37801;53.224;6.552;2022-08-01T07:21:41;14.88;;;3.08;;
51724;SDS011;37801;53.224;6.552;2022-08-01T07:24:08;13.07;;;2.92;;
51724;SDS011;37801;53.224;6.552;2022-08-01T07:26:35;13.68;;;3.10;;
51724;SDS011;37801;53.224;6.552;2022-08-01T07:29:01;16.13;;;3.05;;
51724;SDS011;37801;53.224;6.552;2022-08-01T07:31:27;15.48;;;3.97;;
51724;SDS011;37801;53.224;6.552;2022-08-01T07:33:53;15.93;;;3.28;;
51724;SDS011;37801;53.224;6.552;2022-08-01T07:36:19;17.50;;;3.53;;
51724;SDS011;37801;53.224;6.552;2022-08-01T07:38:45;12.93;;;3.22;;
51724;SDS011;37801;53.224;6.552;2022-08-01T07:41:11;11.07;;;2.88;;
51724;SDS011;37801;53.224;6.552;2022-08-01T07:43:37;14.82;;;3.40;;
51724;SDS011;37801;53.224;6.552;2022-08-01T07:46:03;8.73;;;2.42;;
51724;SDS011;37801;53.224;6.552;2022-08-01T07:48:29;11.48;;;2.80;;
51724;SDS011;37801;53.224;6.552;2022-08-01T07:50:55;13.80;;;3.30;;
51724;SDS011;37801;53.224;6.552;2022-08-01T07:53:21;10.38;;;2.90;;
51724;SDS011;37801;53.224;6.552;2022-08-01T07:55:47;12.75;;;2.78;;
51724;SDS011;37801;53.224;6.552;2022-08-01T07:58:13;13.50;;;2.65;;
51724;SDS011;37801;53.224;6.552;2022-08-01T08:00:39;14.45;;;3.00;;
51724;SDS011;37801;53.224;6.552;2022-08-01T08:03:05;13.35;;;2.38;;
51724;SDS011;37801;53.224;6.552;2022-08-01T08:05:31;12.40;;;2.38;;
51724;SDS011;37801;53.224;6.552;2022-08-01T08:08:00;13.10;;;2.20;;
51724;SDS011;37801;53.224;6.552;2022-08-01T08:10:26;10.52;;;2.25;;
51724;SDS011;37801;53.224;6.552;2022-08-01T08:12:52;14.93;;;2.45;;
51724;SDS011;37801;53.224;6.552;2022-08-01T08:15:18;8.77;;;1.92;;
51724;SDS011;37801;53.224;6.552;2022-08-01T08:17:44;9.77;;;2.25;;
51724;SDS011;37801;53.224;6.552;2022-08-01T08:20:09;11.60;;;2.85;;
51724;SDS011;37801;53.224;6.552;2022-08-01T08:22:35;8.68;;;2.20;;
51724;SDS011;37801;53.224;6.552;2022-08-01T08:25:02;8.02;;;2.03;;
51724;SDS011;37801;53.224;6.552;2022-08-01T08:27:27;8.13;;;1.95;;
51724;SDS011;37801;53.224;6.552;2022-08-01T08:29:53;9.90;;;2.08;;
51724;SDS011;37801;53.224;6.552;2022-08-01T08:32:19;8.23;;;1.70;;
51724;SDS011;37801;53.224;6.552;2022-08-01T08:34:45;12.52;;;2.47;;
51724;SDS011;37801;53.224;6.552;2022-08-01T08:37:11;8.27;;;1.60;;
51724;SDS011;37801;53.224;6.552;2022-08-01T08:39:37;11.00;;;1.90;;
51724;SDS011;37801;53.224;6.552;2022-08-01T08:42:06;9.15;;;2.15;;
51724;SDS011;37801;53.224;6.552;2022-08-01T08:44:33;10.05;;;2.00;;
51724;SDS011;37801;53.224;6.552;2022-08-01T08:47:01;9.38;;;2.00;;
51724;SDS011;37801;53.224;6.552;2022-08-01T08:49:30;10.45;;;2.30;;
51724;SDS011;37801;53.224;6.552;2022-08-01T08:51:58;11.85;;;2.35;;
51724;SDS011;37801;53.224;6.552;2022-08-01T08:54:25;13.35;;;1.98;;
51724;SDS011;37801;53.224;6.552;2022-08-01T08:56:53;7.80;;;1.95;;
51724;SDS011;37801;53.224;6.552;2022-08-01T08:59:20;7.32;;;1.70;;
51724;SDS011;37801;53.224;6.552;2022-08-01T09:01:47;8.55;;;1.73;;
51724;SDS011;37801;53.224;6.552;2022-08-01T09:04:13;10.57;;;2.22;;
51724;SDS011;37801;53.224;6.552;2022-08-01T09:06:39;11.18;;;2.33;;
51724;SDS011;37801;53.224;6.552;2022-08-01T09:09:05;7.50;;;1.80;;
51724;SDS011;37801;53.224;6.552;2022-08-01T09:11:32;9.23;;;1.92;;
51724;SDS011;37801;53.224;6.552;2022-08-01T09:16:36;10.25;;;2.10;;
51724;SDS011;37801;53.224;6.552;2022-08-01T09:22:00;7.38;;;2.20;;
51724;SDS011;37801;53.224;6.552;2022-08-01T09:24:28;10.65;;;1.80;;
51724;SDS011;37801;53.224;6.552;2022-08-01T09:26:55;6.68;;;1.65;;
51724;SDS011;37801;53.224;6.552;2022-08-01T09:29:25;8.25;;;1.52;;
51724;SDS011;37801;53.224;6.552;2022-08-01T09:31:53;12.13;;;1.95;;
51724;SDS011;37801;53.224;6.552;2022-08-01T09:34:24;8.15;;;1.58;;
51724;SDS011;37801;53.224;6.552;2022-08-01T09:36:59;14.15;;;2.42;;
51724;SDS011;37801;53.224;6.552;2022-08-01T09:39:28;9.68;;;1.75;;
51724;SDS011;37801;53.224;6.552;2022-08-01T09:42:00;8.63;;;1.83;;
51724;SDS011;37801;53.224;6.552;2022-08-01T09:44:38;9.35;;;2.00;;
51724;SDS011;37801;53.224;6.552;2022-08-01T09:47:07;9.48;;;1.88;;
51724;SDS011;37801;53.224;6.552;2022-08-01T09:49:34;8.75;;;1.45;;
51724;SDS011;37801;53.224;6.552;2022-08-01T09:52:11;8.20;;;2.17;;
51724;SDS011;37801;53.224;6.552;2022-08-01T09:57:19;7.80;;;1.40;;
51724;SDS011;37801;53.224;6.552;2022-08-01T09:59:46;9.05;;;1.92;;
51724;SDS011;37801;53.224;6.552;2022-08-01T10:02:27;8.45;;;1.48;;
51724;SDS011;37801;53.224;6.552;2022-08-01T10:05:05;6.70;;;1.35;;
51724;SDS011;37801;53.224;6.552;2022-08-01T10:07:33;5.57;;;1.25;;
51724;SDS011;37801;53.224;6.552;2022-08-01T10:10:09;9.82;;;2.15;;
51724;SDS011;37801;53.224;6.552;2022-08-01T10:12:37;10.82;;;1.80;;
51724;SDS011;37801;53.224;6.552;2022-08-01T10:15:04;8.88;;;1.85;;
51724;SDS011;37801;53.224;6.552;2022-08-01T10:17:31;9.10;;;1.65;;
51724;SDS011;37801;53.224;6.552;2022-08-01T10:19:59;8.23;;;1.67;;
51724;SDS011;37801;53.224;6.552;2022-08-01T10:22:27;9.02;;;1.42;;
51724;SDS011;37801;53.224;6.552;2022-08-01T10:24:56;9.27;;;1.80;;
51724;SDS011;37801;53.224;6.552;2022-08-01T10:27:26;7.85;;;1.77;;
51724;SDS011;37801;53.224;6.552;2022-08-01T10:29:56;6.30;;;1.23;;
51724;SDS011;37801;53.224;6.552;2022-08-01T10:32:25;8.10;;;1.80;;
51724;SDS011;37801;53.224;6.552;2022-08-01T10:34:51;13.50;;;1.60;;
51724;SDS011;37801;53.224;6.552;2022-08-01T10:37:17;7.50;;;1.27;;
51724;SDS011;37801;53.224;6.552;2022-08-01T10:39:44;6.07;;;1.67;;
51724;SDS011;37801;53.224;6.552;2022-08-01T10:42:11;10.00;;;1.40;;
51724;SDS011;37801;53.224;6.552;2022-08-01T10:44:37;10.23;;;1.90;;
51724;SDS011;37801;53.224;6.552;2022-08-01T10:47:07;4.65;;;1.15;;
51724;SDS011;37801;53.224;6.552;2022-08-01T10:49:36;5.22;;;1.42;;
51724;SDS011;37801;53.224;6.552;2022-08-01T10:52:21;6.55;;;1.55;;
51724;SDS011;37801;53.224;6.552;2022-08-01T10:54:47;7.53;;;1.67;;
51724;SDS011;37801;53.224;6.552;2022-08-01T10:57:13;8.48;;;1.73;;
51724;SDS011;37801;53.224;6.552;2022-08-01T10:59:49;4.47;;;1.08;;
51724;SDS011;37801;53.224;6.552;2022-08-01T11:02:30;6.30;;;1.55;;
51724;SDS011;37801;53.224;6.552;2022-08-01T11:05:02;4.65;;;1.02;;
51724;SDS011;37801;53.224;6.552;2022-08-01T11:07:45;6.22;;;1.38;;
51724;SDS011;37801;53.224;6.552;2022-08-01T11:13:05;6.15;;;1.25;;
51724;SDS011;37801;53.224;6.552;2022-08-01T11:15:36;7.28;;;1.42;;
51724;SDS011;37801;53.224;6.552;2022-08-01T11:18:49;6.22;;;1.38;;
51724;SDS011;37801;53.224;6.552;2022-08-01T11:20:58;4.88;;;1.38;;
51724;SDS011;37801;53.224;6.552;2022-08-01T11:23:29;8.40;;;1.73;;
51724;SDS011;37801;53.224;6.552;2022-08-01T11:28:26;7.22;;;1.45;;
51724;SDS011;37801;53.224;6.552;2022-08-01T11:38:42;6.40;;;1.20;;
51724;SDS011;37801;53.224;6.552;2022-08-01T11:41:27;9.15;;;1.45;;
51724;SDS011;37801;53.224;6.552;2022-08-01T11:49:31;4.75;;;0.93;;
51724;SDS011;37801;53.224;6.552;2022-08-01T11:52:25;5.88;;;1.15;;
51724;SDS011;37801;53.224;6.552;2022-08-01T11:55:01;5.65;;;1.17;;
51724;SDS011;37801;53.224;6.552;2022-08-01T11:57:31;5.80;;;1.27;;
51724;SDS011;37801;53.224;6.552;2022-08-01T12:00:11;6.95;;;1.38;;
51724;SDS011;37801;53.224;6.552;2022-08-01T12:02:39;5.95;;;1.52;;
51724;SDS011;37801;53.224;6.552;2022-08-01T12:05:15;7.40;;;1.30;;
51724;SDS011;37801;53.224;6.552;2022-08-01T12:07:43;5.80;;;1.23;;
51724;SDS011;37801;53.224;6.552;2022-08-01T12:10:11;5.45;;;1.35;;
51724;SDS011;37801;53.224;6.552;2022-08-01T12:15:18;4.95;;;1.25;;
51724;SDS011;37801;53.224;6.552;2022-08-01T12:17:50;5.65;;;1.27;;
51724;SDS011;37801;53.224;6.552;2022-08-01T12:20:21;6.68;;;1.30;;
51724;SDS011;37801;53.224;6.552;2022-08-01T12:22:52;5.72;;;1.15;;
51724;SDS011;37801;53.224;6.552;2022-08-01T12:25:19;3.58;;;0.90;;
51724;SDS011;37801;53.224;6.552;2022-08-01T12:27:45;6.97;;;1.45;;
51724;SDS011;37801;53.224;6.552;2022-08-01T12:30:13;4.18;;;0.93;;
51724;SDS011;37801;53.224;6.552;2022-08-01T12:32:44;4.13;;;0.90;;
51724;SDS011;37801;53.224;6.552;2022-08-01T12:35:15;6.47;;;1.30;;
51724;SDS011;37801;53.224;6.552;2022-08-01T12:37:43;8.20;;;1.35;;
51724;SDS011;37801;53.224;6.552;2022-08-01T12:40:21;4.88;;;1.10;;
51724;SDS011;37801;53.224;6.552;2022-08-01T12:42:49;3.60;;;1.23;;
51724;SDS011;37801;53.224;6.552;2022-08-01T12:45:19;4.82;;;1.23;;
51724;SDS011;37801;53.224;6.552;2022-08-01T12:47:50;5.35;;;1.77;;
51724;SDS011;37801;53.224;6.552;2022-08-01T12:50:18;4.60;;;1.50;;
51724;SDS011;37801;53.224;6.552;2022-08-01T12:52:46;8.32;;;1.30;;
51724;SDS011;37801;53.224;6.552;2022-08-01T12:55:13;6.90;;;1.15;;
51724;SDS011;37801;53.224;6.552;2022-08-01T12:57:44;5.80;;;1.30;;
51724;SDS011;37801;53.224;6.552;2022-08-01T13:00:23;4.18;;;1.30;;
51724;SDS011;37801;53.224;6.552;2022-08-01T13:03:07;6.80;;;1.50;;
51724;SDS011;37801;53.224;6.552;2022-08-01T13:08:49;6.10;;;1.27;;
51724;SDS011;37801;53.224;6.552;2022-08-01T13:11:04;7.43;;;1.73;;
51724;SDS011;37801;53.224;6.552;2022-08-01T13:13:37;8.63;;;1.65;;
51724;SDS011;37801;53.224;6.552;2022-08-01T13:16:05;9.13;;;1.38;;
51724;SDS011;37801;53.224;6.552;2022-08-01T13:18:33;10.82;;;1.50;;
51724;SDS011;37801;53.224;6.552;2022-08-01T13:23:37;6.05;;;1.42;;
51724;SDS011;37801;53.224;6.552;2022-08-01T13:26:04;5.45;;;1.20;;
51724;SDS011;37801;53.224;6.552;2022-08-01T13:28:30;3.20;;;1.10;;
51724;SDS011;37801;53.224;6.552;2022-08-01T13:31:06;6.45;;;0.95;;
51724;SDS011;37801;53.224;6.552;2022-08-01T13:33:45;7.53;;;1.20;;
51724;SDS011;37801;53.224;6.552;2022-08-01T13:36:13;6.57;;;1.20;;
51724;SDS011;37801;53.224;6.552;2022-08-01T13:38:40;5.18;;;1.23;;
51724;SDS011;37801;53.224;6.552;2022-08-01T13:41:25;6.05;;;1.45;;
51724;SDS011;37801;53.224;6.552;2022-08-01T13:43:51;6.07;;;1.40;;
51724;SDS011;37801;53.224;6.552;2022-08-01T13:46:17;7.13;;;1.70;;
51724;SDS011;37801;53.224;6.552;2022-08-01T13:48:43;6.45;;;1.20;;
51724;SDS011;37801;53.224;6.552;2022-08-01T13:51:09;6.47;;;1.27;;
51724;SDS011;37801;53.224;6.552;2022-08-01T13:53:35;4.05;;;1.10;;
51724;SDS011;37801;53.224;6.552;2022-08-01T13:56:01;5.88;;;1.33;;
51724;SDS011;37801;53.224;6.552;2022-08-01T13:58:27;6.05;;;1.23;;
51724;SDS011;37801;53.224;6.552;2022-08-01T14:00:54;5.97;;;1.10;;
51724;SDS011;37801;53.224;6.552;2022-08-01T14:03:20;5.95;;;1.48;;
51724;SDS011;37801;53.224;6.552;2022-08-01T14:05:47;6.07;;;1.42;;
51724;SDS011;37801;53.224;6.552;2022-08-01T14:08:13;4.78;;;1.08;;
51724;SDS011;37801;53.224;6.552;2022-08-01T14:10:39;7.97;;;1.60;;
51724;SDS011;37801;53.224;6.552;2022-08-01T14:13:05;4.90;;;1.38;;
51724;SDS011;37801;53.224;6.552;2022-08-01T14:15:31;5.20;;;1.50;;
51724;SDS011;37801;53.224;6.552;2022-08-01T14:17:57;5.97;;;1.30;;
51724;SDS011;37801;53.224;6.552;2022-08-01T14:20:24;7.72;;;1.17;;
51724;SDS011;37801;53.224;6.552;2022-08-01T14:22:49;5.95;;;1.20;;
51724;SDS011;37801;53.224;6.552;2022-08-01T14:25:15;7.97;;;1.63;;
51724;SDS011;37801;53.224;6.552;2022-08-01T14:27:43;8.20;;;1.33;;
51724;SDS011;37801;53.224;6.552;2022-08-01T14:30:09;5.60;;;1.48;;
51724;SDS011;37801;53.224;6.552;2022-08-01T14:32:36;8.27;;;2.15;;
51724;SDS011;37801;53.224;6.552;2022-08-01T14:35:03;5.93;;;1.30;;
51724;SDS011;37801;53.224;6.552;2022-08-01T14:37:31;6.38;;;1.30;;
51724;SDS011;37801;53.224;6.552;2022-08-01T14:39:57;3.70;;;1.40;;
51724;SDS011;37801;53.224;6.552;2022-08-01T14:42:24;6.88;;;1.42;;
51724;SDS011;37801;53.224;6.552;2022-08-01T14:44:50;7.65;;;1.40;;
51724;SDS011;37801;53.224;6.552;2022-08-01T14:47:16;5.75;;;1.50;;
51724;SDS011;37801;53.224;6.552;2022-08-01T14:49:42;6.13;;;1.70;;
51724;SDS011;37801;53.224;6.552;2022-08-01T14:52:08;6.28;;;1.35;;
51724;SDS011;37801;53.224;6.552;2022-08-01T14:54:33;7.30;;;1.80;;
51724;SDS011;37801;53.224;6.552;2022-08-01T14:56:59;5.35;;;1.15;;
51724;SDS011;37801;53.224;6.552;2022-08-01T14:59:25;5.65;;;1.23;;
51724;SDS011;37801;53.224;6.552;2022-08-01T15:01:50;4.28;;;1.40;;
51724;SDS011;37801;53.224;6.552;2022-08-01T15:04:16;7.90;;;1.65;;
51724;SDS011;37801;53.224;6.552;2022-08-01T15:06:42;6.40;;;1.38;;
51724;SDS011;37801;53.224;6.552;2022-08-01T15:09:09;6.50;;;1.67;;
51724;SDS011;37801;53.224;6.552;2022-08-01T15:11:35;5.60;;;1.70;;
51724;SDS011;37801;53.224;6.552;2022-08-01T15:14:02;10.90;;;1.98;;
51724;SDS011;37801;53.224;6.552;2022-08-01T15:16:46;6.45;;;1.08;;
51724;SDS011;37801;53.224;6.552;2022-08-01T15:19:12;5.75;;;1.67;;
51724;SDS011;37801;53.224;6.552;2022-08-01T15:21:38;5.55;;;1.30;;
51724;SDS011;37801;53.224;6.552;2022-08-01T15:24:04;6.55;;;1.83;;
51724;SDS011;37801;53.224;6.552;2022-08-01T15:26:30;5.90;;;1.17;;
51724;SDS011;37801;53.224;6.552;2022-08-01T15:28:56;5.13;;;1.23;;
51724;SDS011;37801;53.224;6.552;2022-08-01T15:31:22;7.40;;;1.63;;
51724;SDS011;37801;53.224;6.552;2022-08-01T15:33:47;6.07;;;1.40;;
51724;SDS011;37801;53.224;6.552;2022-08-01T15:36:13;5.85;;;1.52;;